Little York, Illinois
Current Conditions -  °F | °C
As of 2:15 PM on Monday 24 Nov 2014 (Local Time) from KGBG Reporting Station
Overcast Overcast  
Wind Chill: 14°   Ceiling: 1400
Heat Index: 28°   Visibility: 7mi
Dew Point: 25°   Wind: 22mph
Humidity: 91%   Direction: 260°W
Pressure: 29.62"   Gusts: 29mph
Location:  41.01°N, 90.75°W
Report Text: KGBG 242015Z AUTO 26019G25KT 7SM OVC014 M02/M04 A2962 RMK AO2 T10241037
Loading
Personal Weather Stations






























Interactive Weather Map New forecast layout! Learn more

10-Day Weather Forecast

Advertisements
Track Severe Weather on mobile